Latest Coastal Weather Observations for Frankston (Ballam Park)

IDV60701

Issued at 7:52 pm EST Monday 4 May 2026 (issued every 10 minutes, with the page automatically refreshed every 10 minutes)

About coastal observations | Map of coastal stations | Coastal observations for VIC | Marine services | Other Formats
Station Details ID: 086388 Name: FRANKSTON (BALLAM PARK) Lat: -38.15 Lon: 145.16 Height: 58.47 m
Data from the previous 72 hours. | See also: Recent months at Frankston (Ballam Park)
Date/Time
EST
Wind Sea
Height
m
Swell Vis
km
Cloud Weather Temp
°C
Press
MSL
hPa
Rain since
9am
mm
Dir  Spd
kts
Gust
kts
Height
m
Period
s
Dir
04/07:30pm NNW 10 21 - - - - - - - 15.1 1010.2 0.0
04/07:00pm NNW 11 18 - - - - - - - 15.1 1010.1 0.0
04/06:30pm N 11 20 - - - - - - - 15.5 1009.6 0.0
04/06:00pm N 10 17 - - - - - - - 15.8 1009.2 0.0
04/05:30pm NNW 11 22 - - - - - - - 15.6 1009.1 0.0
04/05:00pm NNW 14 26 - - - - - - - 16.7 1008.8 0.0
04/04:30pm NNW 13 24 - - - - - - - 17.0 1008.6 0.0
04/04:00pm NNW 14 23 - - - - - - - 17.5 1008.2 0.0
04/03:30pm N 12 22 - - - - - - - 17.5 1008.3 0.0
04/03:00pm NNW 12 23 - - - - - - - 17.9 1008.3 0.0
04/02:32pm N 15 26 - - - - - - - 17.8 1008.4 0.0
04/02:30pm N 13 26 - - - - - - - 18.0 1008.3 0.0
04/02:00pm N 12 20 - - - - - - - 17.9 1008.5 0.0
04/01:30pm N 12 20 - - - - - - - 17.3 1008.8 0.0
04/01:00pm NNW 15 24 - - - - - - - 17.3 1009.1 0.0
04/12:30pm N 12 25 - - - - - - - 17.4 1009.5 0.0
04/12:00pm NNW 13 22 - - - - - - - 17.0 1010.0 0.0
04/11:30am NNW 13 23 - - - - - - - 17.1 1010.3 0.0
04/11:00am N 10 17 - - - - - - - 17.5 1010.3 0.0
04/10:30am N 11 19 - - - - - - - 16.8 1010.4 0.0
04/10:00am NNW 11 18 - - - - - - - 16.5 1010.5 0.0
04/09:30am NNW 9 17 - - - - - - - 16.0 1010.7 0.0
04/09:00am N 7 13 - - - - - - - 15.4 1010.8 9.0
04/08:30am N 4 8 - - - - - - - 14.6 1010.9 9.0
04/08:00am N 5 9 - - - - - - - 13.6 1011.0 9.0
04/07:30am N 3 6 - - - - - - - 12.8 1010.9 9.0
04/07:00am N 4 7 - - - - - - - 12.9 1010.9 9.0
04/06:30am N 3 7 - - - - - - - 12.3 1010.6 9.0
04/06:00am N 2 4 - - - - - - - 12.1 1010.7 9.0
04/05:30am N 4 8 - - - - - - - 12.5 1010.7 9.0
04/05:00am N 4 7 - - - - - - - 12.6 1011.0 9.0
04/04:30am NNE 2 5 - - - - - - - 12.1 1011.2 9.0
04/04:00am N 4 7 - - - - - - - 12.4 1011.3 9.0
04/03:30am N 4 8 - - - - - - - 12.5 1011.5 9.0
04/03:00am N 3 6 - - - - - - - 12.4 1011.6 9.0
04/02:30am N 2 5 - - - - - - - 12.3 1011.8 9.0
04/02:00am N 2 5 - - - - - - - 12.5 1012.0 9.0
04/01:30am N 3 5 - - - - - - - 13.0 1011.9 9.0
04/01:00am N 3 5 - - - - - - - 13.0 1011.9 9.0
04/12:30am N 3 5 - - - - - - - 13.3 1011.9 9.0
04/12:00am N 2 3 - - - - - - - 13.0 1011.9 9.0
 
Date/Time
EST
Wind Sea
Height
m
Swell Vis
km
Cloud Weather Temp
°C
Press
MSL
hPa
Rain since
9am
mm
Dir  Spd
kts
Gust
kts
Height
m
Period
s
Dir
03/11:30pm N 3 6 - - - - - - - 13.9 1011.9 9.0
03/11:00pm N 4 8 - - - - - - - 14.3 1012.1 9.0
03/10:30pm NNW 5 8 - - - - - - - 14.4 1011.8 9.0
03/10:00pm N 3 6 - - - - - - - 14.5 1012.3 9.0
03/09:30pm NNW 4 7 - - - - - - - 14.5 1012.5 9.0
03/09:00pm N 4 7 - - - - - - - 14.4 1012.8 9.0
03/08:30pm N 3 5 - - - - - - - 14.2 1012.8 9.0
03/08:00pm N 2 5 - - - - - - - 14.0 1012.5 9.0
03/07:30pm CALM 0 2 - - - - - - - 14.1 1012.5 9.0
03/07:00pm N 4 5 - - - - - - - 14.6 1011.7 9.0
03/06:30pm NNW 2 3 - - - - - - - 14.0 1010.8 9.0
03/06:00pm NW 2 5 - - - - - - - 14.6 1010.9 9.0
03/05:30pm NW 5 9 - - - - - - - 16.1 1010.7 9.0
03/05:00pm NW 5 10 - - - - - - - 16.9 1010.2 9.0
03/04:30pm NNW 3 5 - - - - - - - 17.0 1010.1 9.0
03/04:00pm NNW 4 7 - - - - - - - 16.3 1010.1 9.0
03/03:30pm NNW 3 8 - - - - - - - 16.1 1010.3 9.0
03/03:00pm NW 2 3 - - - - - - Recent precip. 15.9 1010.2 7.8
03/02:30pm WNW 7 13 - - - - - - - 16.1 1010.1 7.4
03/02:00pm N 9 17 - - - - - - - 19.4 1009.5 5.8
03/01:30pm N 8 13 - - - - - - - 19.7 1009.6 5.8
03/01:00pm NNW 9 19 - - - - - - - 20.3 1010.0 5.8
03/12:30pm N 8 12 - - - - - - - 19.9 1009.8 5.8
03/12:00pm NNE 7 15 - - - - - - Recent precip. 17.8 1010.1 5.6
03/11:30am NNE 7 16 - - - - - - - 17.5 1010.6 5.0
03/11:00am NNE 6 11 - - - - - - - 17.5 1010.7 4.0
03/10:30am N 6 14 - - - - - - - 17.9 1011.3 1.8
03/10:00am N 7 15 - - - - - - - 19.2 1011.2 0.2
03/09:30am N 7 18 - - - - - - - 20.3 1010.8 0.0
03/09:00am NNE 7 13 - - - - - - - 20.1 1010.9 0.2
03/08:30am NNE 7 15 - - - - - - - 19.3 1010.9 0.2
03/08:00am NNE 6 11 - - - - - - - 18.9 1011.4 0.2
03/07:30am N 6 11 - - - - - - - 18.9 1011.6 0.2
03/07:00am N 6 15 - - - - - - - 18.9 1011.8 0.2
03/06:30am N 7 13 - - - - - - - 19.8 1012.5 0.2
03/06:00am N 6 13 - - - - - - - 20.0 1012.1 0.2
03/05:30am N 4 9 - - - - - - - 20.2 1012.2 0.2
03/05:00am N 5 12 - - - - - - - 20.2 1011.9 0.2
03/04:30am NNE 3 6 - - - - - - - 19.5 1011.7 0.2
03/04:00am NE 2 4 - - - - - - - 18.3 1012.0 0.2
03/03:30am SE 1 2 - - - - - - - 17.9 1012.4 0.2
03/03:00am SSE 2 3 - - - - - - - 17.9 1012.5 0.2
03/02:30am ESE 1 4 - - - - - - - 17.2 1012.6 0.2
03/02:00am SSE 2 3 - - - - - - - 17.0 1013.0 0.2
03/01:30am CALM 0 0 - - - - - - - 17.2 1013.0 0.2
03/01:00am CALM 0 0 - - - - - - - 17.5 1013.4 0.0
03/12:30am CALM 0 0 - - - - - - - 18.0 1013.6 0.0
03/12:00am CALM 0 2 - - - - - - - 18.9 1013.9 0.0
 
Date/Time
EST
Wind Sea
Height
m
Swell Vis
km
Cloud Weather Temp
°C
Press
MSL
hPa
Rain since
9am
mm
Dir  Spd
kts
Gust
kts
Height
m
Period
s
Dir
02/11:30pm NW 2 4 - - - - - - - 19.9 1014.1 0.0
02/11:00pm N 2 3 - - - - - - - 19.8 1014.4 0.0
02/10:30pm NNW 1 3 - - - - - - - 19.9 1014.5 0.0
02/10:00pm NE 3 5 - - - - - - - 20.6 1014.3 0.0
02/09:30pm ENE 2 3 - - - - - - - 20.5 1014.5 0.0
02/09:00pm ENE 2 5 - - - - - - - 20.9 1014.6 0.0
02/08:30pm NE 2 4 - - - - - - - 21.5 1014.6 0.0
02/08:00pm NNE 4 7 - - - - - - - 22.1 1014.7 0.0
02/07:30pm NE 3 6 - - - - - - - 21.9 1014.8 0.0
02/07:00pm NNE 4 7 - - - - - - - 22.4 1014.9 0.0
02/06:30pm NNE 4 7 - - - - - - - 22.6 1014.8 0.0
02/06:00pm NNE 4 8 - - - - - - - 22.8 1014.8 0.0
02/05:30pm NNE 5 9 - - - - - - - 23.2 1014.6 0.0
02/05:00pm N 5 10 - - - - - - - 23.6 1014.5 0.0
02/04:30pm N 5 12 - - - - - - - 24.1 1014.5 0.0
02/04:00pm N 6 14 - - - - - - - 23.8 1014.6 0.0
02/03:30pm NNE 5 9 - - - - - - - 23.9 1014.9 0.0
02/03:00pm NNE 6 12 - - - - - - - 23.8 1015.0 0.0
02/02:30pm NNE 5 10 - - - - - - - 22.9 1015.3 0.0
02/02:00pm NNE 6 11 - - - - - - - 22.7 1015.6 0.0
02/01:30pm NNE 8 15 - - - - - - - 22.8 1016.0 0.0
02/01:00pm N 7 14 - - - - - - - 23.1 1016.6 0.0
02/12:30pm NNE 7 13 - - - - - - - 22.7 1017.1 0.0
02/12:00pm NNE 6 14 - - - - - - - 22.1 1017.7 0.0
02/11:30am NNE 6 11 - - - - - - - 21.9 1018.2 0.0
02/11:00am NNE 6 12 - - - - - - - 21.5 1018.7 0.0
02/10:30am N 6 12 - - - - - - - 21.3 1018.9 0.0
02/10:00am NNE 6 12 - - - - - - - 21.2 1019.1 0.0
02/09:30am N 5 14 - - - - - - - 21.1 1019.3 0.0
02/09:00am NNE 3 6 - - - - - - - 20.1 1019.3 0.0
02/08:30am ENE 1 3 - - - - - - - 19.1 1019.2 0.0
02/08:00am NE 2 3 - - - - - - - 18.9 1019.2 0.0
02/07:30am NE 1 3 - - - - - - - 18.3 1019.0 0.0
02/07:00am NE 2 4 - - - - - - - 18.1 1018.7 0.0
02/06:30am NE 3 5 - - - - - - - 17.3 1018.8 0.0
02/06:00am ENE 2 5 - - - - - - - 17.4 1018.7 0.0
02/05:30am ENE 2 3 - - - - - - - 17.0 1018.8 0.0
02/05:00am E 2 3 - - - - - - - 16.6 1018.9 0.0
02/04:30am ENE 2 4 - - - - - - - 17.0 1018.9 0.0
02/04:00am ENE 1 3 - - - - - - - 16.9 1019.0 0.0
02/03:30am ENE 2 3 - - - - - - - 17.6 1019.0 0.0
02/03:00am ENE 2 3 - - - - - - - 18.3 1019.2 0.0
02/02:30am NE 3 5 - - - - - - - 18.7 1019.5 0.0
02/02:00am ENE 3 5 - - - - - - - 18.7 1019.7 0.0
02/01:30am ENE 3 6 - - - - - - - 18.8 1020.0 0.0
02/01:00am ENE 3 6 - - - - - - - 19.2 1020.2 0.0
02/12:30am ENE 3 5 - - - - - - - 19.1 1020.5 0.0
02/12:00am ENE 2 5 - - - - - - - 18.7 1020.8 0.0
 
Date/Time
EST
Wind Sea
Height
m
Swell Vis
km
Cloud Weather Temp
°C
Press
MSL
hPa
Rain since
9am
mm
Dir  Spd
kts
Gust
kts
Height
m
Period
s
Dir
01/11:30pm E 2 4 - - - - - - - 18.8 1021.1 0.0
01/11:00pm E 2 3 - - - - - - - 18.8 1021.4 0.0
01/10:30pm ENE 2 5 - - - - - - - 19.5 1021.7 0.0
01/10:00pm ENE 3 5 - - - - - - - 19.5 1021.8 0.0
01/09:30pm ENE 2 4 - - - - - - - 19.7 1021.8 0.0
01/09:00pm ENE 2 4 - - - - - - - 19.6 1021.9 0.0
01/08:30pm ENE 2 4 - - - - - - - 20.4 1021.9 0.0
01/08:00pm ENE 2 5 - - - - - - - 20.7 1021.8 0.0

Other formats

Comma delimited format used in spreadsheet applications
http://www.bom.gov.au/fwo/IDV60701/IDV60701.94876.axf

JavaScript Object Notation format (JSON) in row-major order
http://www.bom.gov.au/fwo/IDV60701/IDV60701.94876.json

Data quality

Most of these data are generated automatically and are frequently updated. Quality checks on data are not normally performed. It is possible for incorrect values to appear. Refer to information at About Latest Weather Observations and please check the disclaimer before using these data.